Time;durP1;ratioP1;P1;durP2;ratioP2;P2;SDS_P1;SDS_P2;PMS_P1;PMS_P2;Temp;Humidity;BMP_temperature;BMP_pressure;BME280_temperature;BME280_humidity;BME280_pressure;Samples;Min_cycle;Max_cycle;Signal;HPM_P1;HPM_P2
2023/07/25 00:00:34;;;;;;;4.22;2.28;;;15.00;99.90;;;;;;5009752;28;20711;-57
2023/07/25 00:03:00;;;;;;;6.15;3.30;;;15.20;99.90;;;;;;5011342;28;20190;-57
2023/07/25 00:05:26;;;;;;;8.10;3.33;;;14.90;99.90;;;;;;5014087;28;20179;-56
2023/07/25 00:07:51;;;;;;;5.18;2.60;;;15.10;99.90;;;;;;5012688;28;20244;-57
2023/07/25 00:10:18;;;;;;;3.78;2.22;;;15.10;99.90;;;;;;5013130;28;20186;-57
2023/07/25 00:12:44;;;;;;;3.92;2.33;;;15.00;99.90;;;;;;5011936;28;20183;-57
2023/07/25 00:15:10;;;;;;;6.75;2.20;;;15.20;99.90;;;;;;5013829;28;20257;-57
2023/07/25 00:17:36;;;;;;;3.25;2.08;;;15.10;99.90;;;;;;5012431;28;20190;-57
2023/07/25 00:20:02;;;;;;;4.82;2.13;;;15.20;99.90;;;;;;5013013;28;20186;-57
2023/07/25 00:22:28;;;;;;;5.00;1.90;;;15.00;99.90;;;;;;5012465;28;20182;-57
2023/07/25 00:24:53;;;;;;;6.43;2.08;;;15.00;99.90;;;;;;5013664;28;20277;-57
2023/07/25 00:27:19;;;;;;;2.60;2.05;;;14.90;99.90;;;;;;5012827;28;20718;-58
2023/07/25 00:29:46;;;;;;;6.68;2.60;;;15.00;99.90;;;;;;5012419;28;20542;-58
2023/07/25 00:32:12;;;;;;;5.07;2.42;;;14.90;99.90;;;;;;5013849;28;20182;-58
2023/07/25 00:34:37;;;;;;;8.07;2.95;;;14.90;99.90;;;;;;5012211;28;20309;-58
2023/07/25 00:37:03;;;;;;;6.30;3.45;;;14.80;99.90;;;;;;5004712;28;20178;-57
2023/07/25 00:39:29;;;;;;;7.43;2.53;;;14.80;99.90;;;;;;5011919;28;20187;-57
2023/07/25 00:41:55;;;;;;;6.75;2.88;;;14.60;99.90;;;;;;5013072;28;20182;-56
2023/07/25 00:44:20;;;;;;;9.65;2.35;;;14.80;99.90;;;;;;5011839;28;20183;-56
2023/07/25 00:46:46;;;;;;;6.43;2.70;;;;;;;;;;5013320;28;20206;-56
2023/07/25 00:49:12;;;;;;;8.27;2.30;;;14.70;99.90;;;;;;5011905;28;20232;-56
2023/07/25 00:51:38;;;;;;;7.43;2.40;;;;;;;;;;5012565;28;20575;-56
2023/07/25 00:54:04;;;;;;;7.07;2.40;;;14.60;99.90;;;;;;5012994;28;20201;-56
2023/07/25 00:56:30;;;;;;;6.63;2.80;;;;;;;;;;5011717;28;20218;-56
2023/07/25 00:58:56;;;;;;;3.90;2.50;;;14.50;99.90;;;;;;5012250;28;20187;-56
2023/07/25 01:01:22;;;;;;;3.58;2.33;;;13.80;99.90;;;;;;5011461;28;20651;-56
2023/07/25 01:07:13;;;;;;;7.03;2.28;;;14.00;99.90;;;;;;5003774;28;20257;-56
2023/07/25 01:09:44;;;;;;;3.70;2.08;;;14.20;99.90;;;;;;5011102;28;20209;-56
2023/07/25 01:12:11;;;;;;;4.75;2.45;;;14.00;99.90;;;;;;5023653;28;20261;-55
2023/07/25 01:14:37;;;;;;;7.20;2.30;;;13.90;99.90;;;;;;5011337;28;20209;-55
2023/07/25 01:17:09;;;;;;;6.53;2.20;;;13.90;99.90;;;;;;5012048;28;20189;-55
2023/07/25 01:19:37;;;;;;;7.22;2.30;;;13.70;99.90;;;;;;5010810;28;20180;-55
2023/07/25 01:28:39;;;;;;;7.47;2.50;;;;;;;;;;4988497;28;20628;-56
2023/07/25 01:31:05;;;;;;;4.90;2.08;;;;;;;;;;4988245;28;20179;-55
2023/07/25 01:33:31;;;;;;;6.88;2.30;;;13.80;99.90;;;;;;4990537;28;20194;-55
2023/07/25 01:35:56;;;;;;;3.63;2.55;;;13.50;99.90;;;;;;4989183;28;20201;-55
2023/07/25 01:38:22;;;;;;;5.80;2.40;;;13.60;99.90;;;;;;4989571;28;20183;-56
2023/07/25 01:40:48;;;;;;;5.97;2.67;;;13.40;99.90;;;;;;4990101;28;20215;-55
2023/07/25 01:43:13;;;;;;;3.92;2.45;;;13.50;99.90;;;;;;4990516;28;20185;-55
2023/07/25 01:45:39;;;;;;;6.23;2.63;;;13.40;99.90;;;;;;4992119;28;20190;-55
2023/07/25 01:48:05;;;;;;;5.93;2.05;;;13.30;99.90;;;;;;4988884;28;20223;-56
2023/07/25 01:50:30;;;;;;;8.65;2.60;;;13.40;99.90;;;;;;4989442;28;20191;-55
2023/07/25 01:52:56;;;;;;;3.97;2.20;;;13.30;99.90;;;;;;4972333;28;20215;-57
2023/07/25 01:55:22;;;;;;;6.28;2.45;;;;;;;;;;4996751;28;20241;-55
2023/07/25 01:57:48;;;;;;;5.70;2.43;;;13.50;99.90;;;;;;5010265;28;20284;-55
2023/07/25 02:00:14;;;;;;;7.55;2.45;;;13.10;99.90;;;;;;5011205;28;20186;-55
2023/07/25 02:02:40;;;;;;;3.35;1.98;;;13.30;99.90;;;;;;5016901;28;20180;-55
2023/07/25 02:05:06;;;;;;;4.33;2.20;;;13.30;99.90;;;;;;5010967;28;20654;-56
2023/07/25 02:07:32;;;;;;;9.77;2.50;;;13.40;99.90;;;;;;5011224;28;20244;-56
2023/07/25 02:09:57;;;;;;;7.33;2.10;;;13.20;99.90;;;;;;5010625;28;20548;-56
2023/07/25 02:12:25;;;;;;;7.50;2.30;;;;;;;;;;5011851;28;20190;-56
2023/07/25 02:14:51;;;;;;;5.70;2.13;;;13.10;99.90;;;;;;5010124;28;20639;-55
2023/07/25 02:17:19;;;;;;;3.70;2.33;;;13.10;99.90;;;;;;5010639;28;20202;-55
2023/07/25 02:19:45;;;;;;;6.57;2.30;;;13.10;99.90;;;;;;5010941;28;20182;-55
2023/07/25 02:22:11;;;;;;;3.57;2.07;;;13.00;99.90;;;;;;5012556;28;20325;-57
2023/07/25 02:24:36;;;;;;;6.63;2.40;;;13.00;99.90;;;;;;5010004;28;20265;-56
2023/07/25 02:27:02;;;;;;;9.57;2.38;;;13.00;99.90;;;;;;5011408;28;20206;-56
2023/07/25 02:29:28;;;;;;;4.07;2.40;;;12.90;99.90;;;;;;5009892;28;20200;-57
2023/07/25 02:31:54;;;;;;;5.72;1.90;;;12.90;99.90;;;;;;5010680;28;20178;-56
2023/07/25 02:34:19;;;;;;;3.00;1.83;;;12.90;99.90;;;;;;5010712;28;20204;-56
2023/07/25 02:36:45;;;;;;;5.70;1.93;;;12.90;99.90;;;;;;5010325;28;20174;-56
2023/07/25 02:39:11;;;;;;;4.80;2.20;;;12.80;99.90;;;;;;5010444;28;20213;-56
2023/07/25 02:41:36;;;;;;;13.30;2.47;;;13.00;99.90;;;;;;5005651;28;20167;-56
2023/07/25 02:44:03;;;;;;;6.20;2.10;;;13.30;99.90;;;;;;5011320;28;20261;-55
2023/07/25 02:46:29;;;;;;;7.93;2.47;;;12.90;99.90;;;;;;5008331;28;20558;-55
2023/07/25 02:48:55;;;;;;;4.07;2.33;;;13.00;99.90;;;;;;5008901;28;20221;-56
2023/07/25 02:51:20;;;;;;;3.47;2.30;;;13.00;99.90;;;;;;5009199;28;20175;-55
2023/07/25 02:53:46;;;;;;;3.67;2.30;;;12.80;99.90;;;;;;5009755;28;20214;-55
2023/07/25 02:56:11;;;;;;;4.70;2.80;;;12.90;99.90;;;;;;5009137;28;20315;-55
2023/07/25 02:58:37;;;;;;;7.73;2.87;;;13.00;99.90;;;;;;5009683;28;20184;-56
2023/07/25 03:01:03;;;;;;;8.93;3.00;;;12.70;99.90;;;;;;5009247;28;20225;-56
2023/07/25 03:03:29;;;;;;;4.80;2.27;;;12.80;99.90;;;;;;5010481;28;20185;-55
2023/07/25 03:05:55;;;;;;;8.07;2.20;;;13.00;99.90;;;;;;5009568;28;20178;-56
2023/07/25 03:08:21;;;;;;;6.87;2.23;;;12.60;99.90;;;;;;5008827;28;20221;-55
2023/07/25 03:10:47;;;;;;;5.63;2.30;;;12.70;99.90;;;;;;5003812;28;20274;-55
2023/07/25 03:13:12;;;;;;;5.07;2.13;;;12.70;99.90;;;;;;5007778;28;20729;-55
2023/07/25 03:15:39;;;;;;;3.57;2.17;;;15.00;99.90;;;;;;5010262;28;20191;-55
2023/07/25 03:18:04;;;;;;;6.73;2.30;;;12.60;99.90;;;;;;5009686;28;20207;-56
2023/07/25 03:20:30;;;;;;;4.20;2.33;;;12.40;99.90;;;;;;5009626;28;20182;-56
2023/07/25 03:22:56;;;;;;;7.03;2.37;;;12.40;99.90;;;;;;5008882;28;20191;-56
2023/07/25 03:25:21;;;;;;;4.37;2.10;;;12.50;99.90;;;;;;5009971;28;20182;-55
2023/07/25 03:27:47;;;;;;;4.17;2.27;;;12.40;99.90;;;;;;5008898;28;20276;-56
2023/07/25 03:30:13;;;;;;;4.60;2.50;;;12.30;99.90;;;;;;5008926;28;20205;-55
2023/07/25 03:32:39;;;;;;;5.90;2.57;;;12.40;99.90;;;;;;5010190;28;20182;-55
2023/07/25 03:35:06;;;;;;;5.40;2.83;;;12.40;99.90;;;;;;5009514;28;20186;-55
2023/07/25 03:37:32;;;;;;;3.73;2.13;;;;;;;;;;5011482;28;20183;-55
2023/07/25 03:39:58;;;;;;;6.83;2.57;;;;;;;;;;5008722;28;20236;-55
2023/07/25 03:42:24;;;;;;;5.03;2.60;;;12.20;99.90;;;;;;5009356;28;20174;-55
2023/07/25 03:44:51;;;;;;;6.93;2.57;;;12.50;99.90;;;;;;5009058;28;20244;-55
2023/07/25 03:47:17;;;;;;;7.47;2.60;;;12.20;99.90;;;;;;5009249;28;20229;-56
2023/07/25 03:49:43;;;;;;;3.57;2.77;;;12.30;99.90;;;;;;5008101;28;20186;-56
2023/07/25 03:52:08;;;;;;;10.27;2.60;;;12.20;99.90;;;;;;5009989;28;20178;-57
2023/07/25 03:54:34;;;;;;;4.17;2.40;;;12.00;99.90;;;;;;5008040;28;20564;-56
2023/07/25 03:57:01;;;;;;;9.97;2.63;;;12.20;99.90;;;;;;5008292;28;20568;-56
2023/07/25 03:59:27;;;;;;;5.60;2.70;;;12.20;99.90;;;;;;5010013;28;20186;-55
2023/07/25 04:01:52;;;;;;;4.17;2.27;;;12.20;99.90;;;;;;5007782;28;20233;-55
2023/07/25 04:04:18;;;;;;;5.70;2.37;;;12.30;99.90;;;;;;5006510;28;20683;-56
2023/07/25 04:06:44;;;;;;;7.43;2.67;;;12.30;99.90;;;;;;5008504;28;20255;-56
2023/07/25 04:09:09;;;;;;;6.77;2.63;;;12.20;99.90;;;;;;5009948;28;20190;-56
2023/07/25 04:11:35;;;;;;;5.10;2.60;;;12.30;99.90;;;;;;5008504;28;20183;-55
2023/07/25 04:14:01;;;;;;;5.20;2.33;;;12.50;99.90;;;;;;5010269;28;20182;-55
2023/07/25 04:16:27;;;;;;;4.87;2.90;;;12.40;99.90;;;;;;5008466;28;20185;-55
2023/07/25 04:19:36;;;;;;;6.10;2.40;;;12.40;99.90;;;;;;5008891;28;20273;-56
2023/07/25 04:22:01;;;;;;;6.33;2.77;;;12.40;99.90;;;;;;5008836;28;20185;-56
2023/07/25 04:24:28;;;;;;;7.33;2.27;;;12.70;99.90;;;;;;5009119;28;20186;-55
2023/07/25 04:26:54;;;;;;;5.57;2.20;;;12.50;99.90;;;;;;5006178;28;20199;-56
2023/07/25 04:29:20;;;;;;;5.90;2.23;;;;;;;;;;5000929;28;20258;-56
2023/07/25 04:31:47;;;;;;;6.57;2.10;;;12.40;99.90;;;;;;5008191;28;20681;-56
2023/07/25 04:34:13;;;;;;;4.70;2.10;;;11.90;99.90;;;;;;5009720;28;20208;-56
2023/07/25 04:40:00;;;;;;;5.47;2.40;;;12.10;99.90;;;;;;5009451;28;20688;-56
2023/07/25 04:42:26;;;;;;;6.87;2.33;;;12.10;99.90;;;;;;5012548;28;20175;-56
2023/07/25 04:44:52;;;;;;;5.40;1.90;;;11.90;99.90;;;;;;5012075;28;20526;-57
2023/07/25 04:47:17;;;;;;;5.00;2.40;;;11.90;99.90;;;;;;5013512;28;20213;-56
2023/07/25 04:49:43;;;;;;;7.03;2.40;;;11.70;99.90;;;;;;5012264;28;20178;-56
2023/07/25 04:52:09;;;;;;;5.97;2.20;;;11.70;99.90;;;;;;5012481;28;20187;-56
2023/07/25 04:54:35;;;;;;;11.03;2.87;;;11.80;99.90;;;;;;5013235;28;20549;-56
2023/07/25 04:57:01;;;;;;;3.07;1.73;;;;;;;;;;5012241;28;20233;-56
2023/07/25 04:59:26;;;;;;;4.40;2.43;;;11.70;99.90;;;;;;5004366;28;20181;-56
2023/07/25 05:02:14;;;;;;;3.83;2.10;;;11.60;99.90;;;;;;5012047;28;20183;-57
2023/07/25 05:08:01;;;;;;;4.33;2.27;;;11.90;99.90;;;;;;5005743;28;20221;-57
2023/07/25 05:10:27;;;;;;;7.50;2.30;;;11.80;99.90;;;;;;5011281;28;20182;-57
2023/07/25 05:12:53;;;;;;;4.73;2.40;;;12.00;99.90;;;;;;5012978;28;20278;-57
2023/07/25 05:15:18;;;;;;;4.73;2.20;;;12.00;99.90;;;;;;5011185;28;20649;-57
2023/07/25 05:17:44;;;;;;;7.10;2.47;;;12.20;99.90;;;;;;5012117;28;20229;-57
2023/07/25 05:20:10;;;;;;;5.37;2.20;;;12.20;99.90;;;;;;5011280;28;20248;-57
2023/07/25 05:22:36;;;;;;;3.40;2.23;;;12.30;99.90;;;;;;5012734;28;20569;-57
2023/07/25 05:25:02;;;;;;;4.00;2.50;;;12.40;99.90;;;;;;5011089;28;20510;-57
2023/07/25 05:27:27;;;;;;;4.63;2.00;;;12.50;99.90;;;;;;5013056;28;20309;-57
2023/07/25 05:29:53;;;;;;;11.17;2.37;;;12.50;99.90;;;;;;5011301;28;20202;-57
2023/07/25 05:32:21;;;;;;;5.60;2.43;;;12.50;99.90;;;;;;5010711;28;20600;-57
2023/07/25 05:34:47;;;;;;;6.23;2.37;;;13.70;99.90;;;;;;5012727;28;20178;-57
2023/07/25 05:37:13;;;;;;;4.57;2.10;;;12.60;99.90;;;;;;5010764;28;20194;-57
2023/07/25 05:43:03;;;;;;;10.00;2.40;;;12.70;99.90;;;;;;5004516;28;20202;-57
2023/07/25 05:45:54;;;;;;;4.07;1.97;;;12.80;99.90;;;;;;5010494;28;20185;-57
2023/07/25 05:51:48;;;;;;;4.83;2.20;;;13.00;99.90;;;;;;5005424;28;20604;-57
2023/07/25 05:54:15;;;;;;;4.17;2.30;;;13.00;99.90;;;;;;5011308;28;20187;-57
2023/07/25 05:56:41;;;;;;;4.13;1.80;;;12.90;99.90;;;;;;5010962;28;20349;-57
2023/07/25 05:59:07;;;;;;;9.20;2.23;;;12.90;99.90;;;;;;5011357;28;20635;-57
2023/07/25 06:01:32;;;;;;;2.73;1.80;;;12.90;99.90;;;;;;5011277;28;20228;-57
2023/07/25 06:03:58;;;;;;;3.73;2.10;;;12.90;99.90;;;;;;5011362;28;20201;-57
2023/07/25 06:06:24;;;;;;;6.73;2.50;;;12.80;99.90;;;;;;5011650;28;20565;-57
2023/07/25 06:08:49;;;;;;;6.90;2.00;;;12.80;99.90;;;;;;5010274;28;20214;-56
2023/07/25 06:11:21;;;;;;;6.07;2.10;;;12.70;99.90;;;;;;5011754;28;20703;-57
2023/07/25 06:13:49;;;;;;;9.70;2.30;;;12.80;99.90;;;;;;5010371;28;20269;-57
2023/07/25 06:16:15;;;;;;;7.10;2.63;;;12.80;99.90;;;;;;5009871;28;20197;-56
2023/07/25 06:18:41;;;;;;;6.90;2.10;;;12.90;99.90;;;;;;5010220;28;20210;-58
2023/07/25 06:21:44;;;;;;;3.17;2.13;;;12.90;99.90;;;;;;5011296;28;20207;-59
2023/07/25 06:38:05;;;;;;;10.73;2.50;;;13.50;99.90;;;;;;5003185;28;20189;-59
2023/07/25 06:40:31;;;;;;;4.43;1.90;;;13.80;99.90;;;;;;5008988;28;20183;-57
2023/07/25 06:43:49;;;;;;;9.10;2.10;;;13.60;99.90;;;;;;5013462;28;20187;-61
2023/07/25 06:46:15;;;;;;;3.58;1.60;;;13.70;99.90;;;;;;5010634;28;20187;-61
2023/07/25 06:48:41;;;;;;;7.45;2.22;;;13.80;99.90;;;;;;5010179;28;20366;-61
2023/07/25 06:51:07;;;;;;;4.97;2.10;;;13.90;99.90;;;;;;5009809;28;20253;-62
2023/07/25 06:53:33;;;;;;;6.00;2.38;;;14.00;99.90;;;;;;5009242;28;20261;-61
2023/07/25 06:55:58;;;;;;;3.38;1.90;;;14.10;99.90;;;;;;5010832;28;20776;-61
2023/07/25 06:58:24;;;;;;;7.22;2.40;;;13.80;99.90;;;;;;5010213;28;20664;-60
2023/07/25 07:00:50;;;;;;;7.45;2.08;;;14.10;99.90;;;;;;5010154;28;20656;-60
2023/07/25 07:03:15;;;;;;;5.38;2.17;;;14.20;99.90;;;;;;5009678;28;20185;-60
2023/07/25 07:05:50;;;;;;;5.15;2.40;;;13.60;99.90;;;;;;5009022;28;20556;-60
2023/07/25 07:08:16;;;;;;;6.65;2.65;;;14.30;99.90;;;;;;5010273;28;20226;-60
2023/07/25 07:10:42;;;;;;;6.97;2.58;;;;;;;;;;5009131;28;20652;-60
2023/07/25 07:13:08;;;;;;;4.50;2.05;;;14.60;99.90;;;;;;4997864;28;20203;-61
2023/07/25 07:15:33;;;;;;;4.72;2.17;;;14.50;99.90;;;;;;5007323;28;20278;-61
2023/07/25 07:17:59;;;;;;;4.35;1.80;;;14.40;99.90;;;;;;5010243;28;20178;-60
2023/07/25 07:20:25;;;;;;;4.20;1.80;;;14.60;99.90;;;;;;5010949;28;20183;-60
2023/07/25 07:22:50;;;;;;;4.82;1.75;;;14.70;99.90;;;;;;5010312;28;20182;-60
2023/07/25 07:25:16;;;;;;;8.68;2.40;;;14.80;99.90;;;;;;5009028;28;20175;-60
2023/07/25 07:27:42;;;;;;;6.70;2.08;;;15.00;99.90;;;;;;5010190;28;20754;-60
2023/07/25 07:30:08;;;;;;;6.35;1.80;;;15.10;99.90;;;;;;5008783;28;20663;-60
2023/07/25 07:32:33;;;;;;;5.68;1.75;;;15.30;99.90;;;;;;5009847;28;20182;-60
2023/07/25 07:34:59;;;;;;;8.90;1.92;;;15.50;99.90;;;;;;5009349;28;20210;-60
2023/07/25 07:37:25;;;;;;;3.90;1.90;;;15.50;99.90;;;;;;5008494;28;20545;-60
2023/07/25 07:39:50;;;;;;;2.70;1.58;;;15.60;99.90;;;;;;5010350;28;20183;-60
2023/07/25 07:42:16;;;;;;;3.00;1.20;;;15.70;99.90;;;;;;5006063;28;20182;-63
2023/07/25 07:44:41;;;;;;;3.65;1.77;;;15.90;99.90;;;;;;5009949;28;20184;-63
2023/07/25 07:47:07;;;;;;;3.30;1.40;;;16.10;99.90;;;;;;5008511;28;20229;-63
2023/07/25 07:49:34;;;;;;;3.97;1.38;;;16.30;99.90;;;;;;5010042;28;20274;-64
2023/07/25 07:51:59;;;;;;;3.58;1.25;;;16.50;99.90;;;;;;5008499;28;20182;-65
2023/07/25 07:54:25;;;;;;;2.75;0.93;;;16.70;99.90;;;;;;5009278;28;20186;-63
2023/07/25 07:56:51;;;;;;;3.80;1.35;;;17.10;99.90;;;;;;5010891;28;20716;-63
2023/07/25 07:59:16;;;;;;;2.55;1.33;;;17.00;99.90;;;;;;5008612;28;20707;-63
2023/07/25 08:01:42;;;;;;;3.28;1.20;;;17.20;99.90;;;;;;5009207;28;20190;-64
2023/07/25 08:04:08;;;;;;;3.55;1.20;;;17.40;99.90;;;;;;5009628;28;20607;-63
2023/07/25 08:06:33;;;;;;;4.13;1.30;;;17.60;99.90;;;;;;5010060;28;20183;-63
2023/07/25 08:08:59;;;;;;;5.65;1.40;;;17.80;99.90;;;;;;5008662;28;20233;-64
2023/07/25 08:11:25;;;;;;;9.27;1.60;;;17.90;99.90;;;;;;5006407;28;20645;-71
2023/07/25 08:13:50;;;;;;;3.38;1.23;;;18.40;99.90;;;;;;5008421;28;20189;-70
2023/07/25 08:16:16;;;;;;;3.83;1.35;;;17.70;99.90;;;;;;5013488;28;20193;-72
2023/07/25 08:18:42;;;;;;;3.35;1.20;;;;;;;;;;5012661;28;20711;-75
2023/07/25 08:21:08;;;;;;;9.02;1.40;;;17.50;99.90;;;;;;5012999;28;20236;-75
2023/07/25 08:23:34;;;;;;;5.38;1.25;;;;;;;;;;5012760;28;20179;-75
2023/07/25 08:25:59;;;;;;;4.75;1.30;;;17.40;99.90;;;;;;5012359;28;20187;-76
2023/07/25 08:28:25;;;;;;;5.95;1.60;;;17.30;99.90;;;;;;5013506;28;20803;-75
2023/07/25 08:31:07;;;;;;;4.43;1.45;;;17.30;99.90;;;;;;5012242;28;20726;-75
2023/07/25 08:33:34;;;;;;;3.75;1.63;;;17.30;99.90;;;;;;5016612;28;20229;-75
2023/07/25 08:36:01;;;;;;;3.80;1.42;;;17.20;99.90;;;;;;5013371;28;20277;-73
2023/07/25 08:38:27;;;;;;;4.22;1.38;;;17.20;99.90;;;;;;5013022;28;20179;-73
2023/07/25 08:41:07;;;;;;;4.40;1.30;;;17.30;99.90;;;;;;5011724;28;20636;-73
2023/07/25 08:44:13;;;;;;;1.08;0.90;;;17.40;99.90;;;;;;5012690;28;20186;-73
2023/07/25 08:46:44;;;;;;;2.55;1.10;;;17.40;99.90;;;;;;5013260;28;20731;-73
2023/07/25 08:49:14;;;;;;;4.70;1.25;;;17.70;99.90;;;;;;5011679;28;20218;-74
2023/07/25 08:51:43;;;;;;;3.90;1.40;;;17.60;1.00;;;;;;5011957;28;20668;-73
2023/07/25 08:54:27;;;;;;;3.50;1.15;;;17.60;1.00;;;;;;5008727;28;20193;-74
2023/07/25 08:56:53;;;;;;;1.17;1.08;;;17.30;99.80;;;;;;5011781;28;20301;-70
2023/07/25 08:59:21;;;;;;;6.18;1.30;;;17.40;99.90;;;;;;5011127;28;20194;-70
2023/07/25 09:01:47;;;;;;;3.63;1.08;;;17.20;99.90;;;;;;5012113;28;20257;-75
2023/07/25 09:04:14;;;;;;;3.60;1.30;;;17.60;1.00;;;;;;5008672;28;20220;-71
2023/07/25 09:06:40;;;;;;;2.15;1.30;;;;;;;;;;5011733;28;20178;-70
2023/07/25 09:09:07;;;;;;;4.63;1.27;;;18.00;1.00;;;;;;5010338;28;20621;-70
2023/07/25 09:11:34;;;;;;;3.47;1.35;;;18.20;99.90;;;;;;5013193;28;20167;-71
2023/07/25 09:14:01;;;;;;;2.75;1.13;;;18.20;99.90;;;;;;5010885;28;20186;-71
2023/07/25 09:16:27;;;;;;;2.88;1.35;;;;;;;;;;5012579;28;20182;-71
2023/07/25 09:18:53;;;;;;;3.97;1.30;;;18.60;1.00;;;;;;5011288;28;20182;-71
2023/07/25 09:21:19;;;;;;;3.38;1.23;;;19.30;99.90;;;;;;5011888;28;20198;-71
2023/07/25 09:24:00;;;;;;;3.42;1.35;;;19.70;99.80;;;;;;5012527;28;20371;-71
2023/07/25 09:26:30;;;;;;;8.60;1.73;;;19.80;1.00;;;;;;5008908;28;20206;-71
2023/07/25 09:28:59;;;;;;;3.97;1.50;;;20.10;99.90;;;;;;5010965;28;20225;-69
2023/07/25 09:31:26;;;;;;;4.57;1.45;;;20.60;1.00;;;;;;5011671;28;20266;-69
2023/07/25 09:33:54;;;;;;;3.55;1.38;;;20.70;1.00;;;;;;5010112;28;20545;-70
2023/07/25 09:36:20;;;;;;;4.43;1.30;;;20.80;55.50;;;;;;5010872;28;20190;-70
2023/07/25 09:38:52;;;;;;;3.20;1.45;;;20.50;1.00;;;;;;5011821;28;20252;-70
2023/07/25 09:41:19;;;;;;;5.70;1.63;;;20.20;1.00;;;;;;5011418;28;20193;-70
2023/07/25 09:43:45;;;;;;;3.28;1.23;;;20.40;1.00;;;;;;4991653;28;20180;-70
2023/07/25 09:46:11;;;;;;;4.28;1.73;;;20.60;1.00;;;;;;5010573;28;20202;-70
2023/07/25 09:48:47;;;;;;;3.60;2.00;;;20.60;99.90;;;;;;5014295;28;20218;-70
2023/07/25 09:51:13;;;;;;;5.38;2.00;;;20.20;1.00;;;;;;5010764;28;20174;-71
2023/07/25 09:53:43;;;;;;;4.55;2.00;;;19.90;24.40;;;;;;5012457;28;20183;-71
2023/07/25 09:56:10;;;;;;;13.68;2.20;;;19.80;1.00;;;;;;5010658;28;20213;-72
2023/07/25 09:58:36;;;;;;;5.50;2.33;;;20.20;1.00;;;;;;5004123;28;20194;-71
2023/07/25 10:01:03;;;;;;;3.47;2.13;;;20.20;1.00;;;;;;5010116;28;20183;-71
2023/07/25 10:03:30;;;;;;;4.93;1.65;;;19.90;99.90;;;;;;5010971;28;20277;-71
2023/07/25 10:05:57;;;;;;;8.65;2.00;;;19.70;99.90;;;;;;5010315;28;20216;-71
2023/07/25 10:08:25;;;;;;;3.67;1.90;;;19.40;1.00;;;;;;5009795;28;20271;-72
2023/07/25 10:10:54;;;;;;;6.63;2.45;;;19.40;1.00;;;;;;5008253;28;20190;-70
2023/07/25 10:13:20;;;;;;;8.10;2.35;;;19.10;1.00;;;;;;5011675;28;20214;-69
2023/07/25 10:15:46;;;;;;;4.85;1.80;;;;;;;;;;5010392;28;20592;-70
2023/07/25 10:18:26;;;;;;;4.50;2.05;;;18.70;99.90;;;;;;5007979;28;20246;-70
2023/07/25 10:20:53;;;;;;;2.80;1.67;;;18.60;99.90;;;;;;5010126;28;20175;-70
2023/07/25 10:23:19;;;;;;;4.90;2.30;;;18.30;33.10;;;;;;5010896;28;20227;-70
2023/07/25 10:25:45;;;;;;;4.97;2.05;;;18.40;1.00;;;;;;5012109;28;20175;-70
2023/07/25 10:28:12;;;;;;;3.22;1.50;;;19.20;1.00;;;;;;5011477;28;20237;-70
2023/07/25 10:30:48;;;;;;;6.00;1.73;;;19.30;1.00;;;;;;5011201;28;20198;-70
2023/07/25 10:33:15;;;;;;;3.63;2.15;;;20.10;1.00;;;;;;5011005;28;20264;-70
2023/07/25 10:35:54;;;;;;;5.53;1.77;;;21.00;1.00;;;;;;5010178;28;20664;-69
2023/07/25 10:38:42;;;;;;;3.60;2.00;;;21.10;1.00;;;;;;5008320;28;20185;-71
2023/07/25 10:41:10;;;;;;;3.55;1.67;;;22.00;99.90;;;;;;5009887;28;20209;-71
2023/07/25 10:43:45;;;;;;;3.65;1.60;;;22.10;99.90;;;;;;5010617;28;20178;-71
2023/07/25 10:46:15;;;;;;;3.25;1.60;;;22.40;99.90;;;;;;5010061;28;20257;-70
2023/07/25 10:48:55;;;;;;;2.58;1.45;;;22.50;99.90;;;;;;5010232;28;20217;-71
2023/07/25 10:51:21;;;;;;;3.45;2.00;;;22.80;99.90;;;;;;5009253;28;20185;-70
2023/07/25 10:54:09;;;;;;;5.28;1.85;;;23.60;1.00;;;;;;5009780;28;20179;-71
2023/07/25 10:56:39;;;;;;;3.28;1.80;;;23.30;1.00;;;;;;5009362;28;20617;-71
2023/07/25 10:59:09;;;;;;;3.67;2.00;;;23.50;1.00;;;;;;5010819;28;20182;-70
2023/07/25 11:01:47;;;;;;;4.82;2.78;;;23.20;1.00;;;;;;5012018;28;20182;-71
2023/07/25 11:04:29;;;;;;;4.55;1.55;;;21.60;1.00;;;;;;5010122;28;20269;-71
2023/07/25 11:07:09;;;;;;;9.18;1.60;;;21.60;1.00;;;;;;5009935;28;20265;-69
2023/07/25 11:09:39;;;;;;;6.43;1.80;;;22.00;99.90;;;;;;5008270;28;20217;-70
2023/07/25 11:12:06;;;;;;;5.72;1.98;;;22.20;99.90;;;;;;5010796;28;20171;-70
2023/07/25 11:14:32;;;;;;;5.72;2.08;;;23.20;1.00;;;;;;5009267;28;20194;-72
2023/07/25 11:16:58;;;;;;;3.42;1.70;;;;;;;;;;5010073;28;20174;-72
2023/07/25 11:19:27;;;;;;;5.20;1.80;;;;;;;;;;5009261;28;20273;-76
2023/07/25 11:21:53;;;;;;;3.88;2.00;;;22.30;1.00;;;;;;5010480;28;20179;-77
2023/07/25 11:24:21;;;;;;;5.47;2.08;;;22.70;1.00;;;;;;5009141;28;20591;-76
2023/07/25 11:26:46;;;;;;;4.90;2.25;;;22.10;99.90;;;;;;5010136;28;20230;-76
2023/07/25 11:29:13;;;;;;;5.53;2.30;;;22.30;1.00;;;;;;5009428;28;20238;-77
2023/07/25 11:31:46;;;;;;;6.47;2.20;;;22.30;99.90;;;;;;5007763;28;20174;-68
2023/07/25 11:34:13;;;;;;;7.28;2.60;;;22.50;99.90;;;;;;5008492;28;20229;-70
2023/07/25 11:36:40;;;;;;;4.25;2.42;;;22.60;1.00;;;;;;5010414;28;20182;-68
2023/07/25 11:39:10;;;;;;;6.47;2.00;;;21.80;1.00;;;;;;5011113;28;20167;-69
2023/07/25 11:41:37;;;;;;;6.53;1.95;;;21.70;99.90;;;;;;5009464;28;20188;-68
2023/07/25 11:44:24;;;;;;;2.33;1.70;;;21.90;99.90;;;;;;5007299;28;20231;-69
2023/07/25 11:46:52;;;;;;;3.10;1.95;;;21.90;99.90;;;;;;5007207;28;20209;-68
2023/07/25 11:49:19;;;;;;;11.35;1.92;;;21.30;99.90;;;;;;5007475;28;20210;-69
2023/07/25 11:51:46;;;;;;;3.90;1.70;;;21.40;1.00;;;;;;4999618;28;20171;-68
2023/07/25 11:54:12;;;;;;;6.80;2.15;;;21.30;99.90;;;;;;5007707;28;20182;-68
2023/07/25 11:56:38;;;;;;;2.88;1.50;;;21.30;99.90;;;;;;5008617;28;20225;-70
2023/07/25 11:59:04;;;;;;;4.03;1.40;;;21.20;99.90;;;;;;5010004;28;20183;-69
2023/07/25 12:01:32;;;;;;;2.83;1.52;;;21.20;1.00;;;;;;5007491;28;20182;-70
2023/07/25 12:04:01;;;;;;;2.80;1.33;;;21.50;1.00;;;;;;5008579;28;20166;-69
2023/07/25 12:06:29;;;;;;;3.15;1.60;;;21.90;1.00;;;;;;5007945;28;20253;-69
2023/07/25 12:08:55;;;;;;;3.33;1.45;;;22.00;1.00;;;;;;5009983;28;20596;-71
2023/07/25 12:11:21;;;;;;;2.40;1.20;;;21.90;1.00;;;;;;5007315;28;20725;-69
2023/07/25 12:13:47;;;;;;;5.70;1.33;;;22.30;1.00;;;;;;5009139;28;20182;-70
2023/07/25 12:16:34;;;;;;;2.58;1.10;;;22.10;1.00;;;;;;5009352;28;20265;-69
2023/07/25 12:19:08;;;;;;;2.17;1.20;;;23.60;1.00;;;;;;5009194;28;20174;-70
2023/07/25 12:21:36;;;;;;;5.45;1.13;;;23.50;1.00;;;;;;5009397;28;20194;-69
2023/07/25 12:24:05;;;;;;;2.22;1.10;;;23.10;1.00;;;;;;5007465;28;20183;-70
2023/07/25 12:26:44;;;;;;;3.97;1.05;;;22.70;1.00;;;;;;5007871;28;20265;-69
2023/07/25 12:29:21;;;;;;;2.72;1.38;;;22.60;1.00;;;;;;5008491;28;20229;-70
2023/07/25 12:31:47;;;;;;;3.22;1.50;;;22.50;1.00;;;;;;5003681;28;20715;-70
2023/07/25 12:34:18;;;;;;;3.30;1.00;;;22.60;99.90;;;;;;5009487;28;20171;-70
2023/07/25 12:36:45;;;;;;;4.53;1.50;;;22.60;99.90;;;;;;5008598;28;20190;-70
2023/07/25 12:39:10;;;;;;;3.00;1.10;;;23.40;1.00;;;;;;5009861;28;20178;-70
2023/07/25 12:41:37;;;;;;;8.20;1.67;;;23.40;1.00;;;;;;5008166;28;20178;-69
2023/07/25 12:44:03;;;;;;;3.17;1.40;;;24.00;1.00;;;;;;5007573;28;20569;-70
2023/07/25 12:46:29;;;;;;;4.28;1.50;;;23.80;1.00;;;;;;5007491;28;20179;-70
2023/07/25 12:48:55;;;;;;;5.65;1.75;;;23.60;1.00;;;;;;5009808;28;20241;-70
2023/07/25 12:51:21;;;;;;;5.78;2.20;;;23.70;1.00;;;;;;5008385;28;20179;-70
2023/07/25 12:53:47;;;;;;;4.28;1.60;;;24.20;1.00;;;;;;5009289;28;20178;-70
2023/07/25 12:56:13;;;;;;;3.47;1.73;;;24.10;1.00;;;;;;5007093;28;20229;-69
2023/07/25 12:58:38;;;;;;;3.63;1.60;;;24.70;1.00;;;;;;5008776;28;20641;-70
2023/07/25 13:01:04;;;;;;;5.05;1.70;;;23.60;1.00;;;;;;5007552;28;20170;-70
2023/07/25 13:03:30;;;;;;;2.38;1.30;;;23.30;1.00;;;;;;5015142;28;20193;-70
2023/07/25 13:05:56;;;;;;;3.28;1.27;;;23.70;99.90;;;;;;5012739;28;20667;-70
2023/07/25 13:08:22;;;;;;;4.72;1.33;;;23.80;1.00;;;;;;5011601;28;20222;-69
2023/07/25 13:10:48;;;;;;;4.50;1.48;;;;;;;;;;5012125;28;20175;-69
2023/07/25 13:13:15;;;;;;;2.60;1.60;;;24.80;48.50;;;;;;5011607;28;20294;-70
2023/07/25 13:15:41;;;;;;;3.22;1.58;;;25.10;1.00;;;;;;5004069;28;20183;-72
2023/07/25 13:18:07;;;;;;;3.53;1.50;;;;;;;;;;5011356;28;20214;-71
2023/07/25 13:20:33;;;;;;;4.43;1.75;;;25.30;1.00;;;;;;5012366;28;20175;-70
2023/07/25 13:22:59;;;;;;;3.53;1.45;;;;;;;;;;5011216;28;20186;-70
2023/07/25 13:25:25;;;;;;;5.78;1.73;;;24.80;1.00;;;;;;5011740;28;20649;-69
2023/07/25 13:27:51;;;;;;;2.22;1.30;;;;;;;;;;5011311;28;20237;-70
2023/07/25 13:30:17;;;;;;;3.40;1.00;;;24.70;99.90;;;;;;5014805;28;20206;-70
2023/07/25 13:32:42;;;;;;;3.30;1.20;;;25.30;1.00;;;;;;5011904;28;20668;-70
2023/07/25 13:35:08;;;;;;;3.53;1.20;;;25.30;99.90;;;;;;5011222;28;20187;-70